Sweeney Granite Mountains, California Weather observations

Data are for 10 minute period ending at time listed.
 Day   Time   Solar   Ave.   Ave.  Ave.  Vector  Max.   Baro.   Total    
  of    of     Rad.   Air    Rel.  Wind   Wind   Wind  Press.  Precip.   
Year   Day            Temp.  Hum.  Speed  Dir.   Gust                    
2016   (PST)  Kw/m2    F      %     mph   deg.    mph    mb.     in.     
-------------------------------------------------------------------------
 236   20:10   0.00   75.9    35    3.0   306     4.1   873.0    0.00 
 236   20:20   0.00   76.4    33    2.5   298     3.9   873.1    0.00 
 236   20:30   0.00   75.9    35    2.7   294     4.5   873.1    0.00 
 236   20:40   0.00   75.9    36    2.9   279     4.5   873.3    0.00 
 236   20:50   0.00   75.0    37    3.1   297     4.9   873.3    0.00 
 236   21:00   0.00   74.6    39    3.3   290     4.4   873.4    0.00 
 236   21:10   0.00   74.5    39    3.8   284     5.0   873.5    0.00 
 236   21:20   0.00   74.3    40    4.5   291     6.2   873.6    0.00 
 236   21:30   0.00   74.7    39    4.1   278     5.1   873.7    0.00 
 236   21:40   0.00   75.2    36    3.1   287     4.6   873.7    0.00 
 236   21:50   0.00   74.9    38    3.3   295     4.4   873.7    0.00 
 236   22:00   0.00   74.8    39    3.0   280     4.2   873.7    0.00 
 236   22:10   0.00   72.6    46    3.5   286     5.0   873.6    0.00 
 236   22:20   0.00   73.1    43    4.9   280     5.5   873.6    0.00 
 236   22:30   0.00   74.6    39    4.4   273     5.5   873.5    0.00 
 236   22:40   0.00   74.5    39    3.8   268     4.9   873.4    0.00 
 236   22:50   0.00   73.6    43    3.6   275     4.3   873.4    0.00 
 236   23:00   0.00   73.7    41    3.5   262     4.6   873.3    0.00 
 236   23:10   100.00  99999.0   99999  99999.0   99999   99999.0   99999.0   99999.00 
 236   23:20   100.00  99999.0   99999  99999.0   99999   99999.0   99999.0   99999.00 
 236   23:30   100.00  99999.0   99999  99999.0   99999   99999.0   99999.0   99999.00 
 236   23:40   100.00  99999.0   99999  99999.0   99999   99999.0   99999.0   99999.00 
 236   23:50   100.00  99999.0   99999  99999.0   99999   99999.0   99999.0   99999.00 
 237    0:00   0.00   71.7    44    5.1   270     6.6   873.4    0.00 
 237    0:10   0.00   71.7    42    4.2   280     5.8   873.3    0.00 
 237    0:20   0.00   72.2    41    2.5   282     4.3   873.3    0.00 
 237    0:30   0.00   70.9    45    3.9   288     5.0   873.2    0.00 
 237    0:40   0.00   71.7    44    4.7   282     5.8   873.2    0.00 
 237    0:50   0.00   73.0    38    5.9   284     7.1   873.1    0.00 
 237    1:00   0.00   73.1    40    4.2   281     6.6   873.0    0.00 
 237    1:10   0.00   73.3    40    3.0   252     4.3   873.1    0.00 
 237    1:20   0.00   72.4    42    4.4   273     5.4   873.0    0.00 
 237    1:30   0.00   72.1    40    4.3   275     6.1   873.0    0.00 
 237    1:40   0.00   71.7    42    4.2   267     6.1   873.0    0.00 
 237    1:50   0.00   72.7    38    3.4   272     4.9   873.0    0.00 
 237    2:00   0.00   72.5    40    3.6   274     4.9   873.0    0.00 
 237    2:10   0.00   72.2    38    3.5   268     5.0   872.9    0.00 
 237    2:20   0.00   71.8    39    3.6   285     4.6   872.9    0.00 
 237    2:30   0.00   71.8    40    3.2   270     4.5   872.9    0.00 
 237    2:40   0.00   70.9    42    3.2   278     3.9   872.9    0.00 
 237    2:50   0.00   69.9    46    4.8   274     6.3   872.9    0.00 
 237    3:00   0.00   70.5    43    5.3   276     6.8   872.7    0.00 
 237    3:10   0.00   70.5    40    4.2   271     5.2   872.7    0.00 
 237    3:20   0.00   69.9    43    4.1   278     5.2   872.6    0.00 
 237    3:30   0.00   70.6    41    2.8   295     4.4   872.7    0.00 
 237    3:40   0.00   69.3    46    4.2   288     5.6   872.6    0.00 
 237    3:50   0.00   70.5    43    3.4   286     4.7   872.6    0.00 
 237    4:00   0.00   69.5    47    2.7   276     3.6   872.6    0.00 
 237    4:10   0.00   68.7    48    3.3   298     4.3   872.6    0.00 
 237    4:20   0.00   69.6    46    4.0   272     4.7   872.7    0.00 
 237    4:30   0.00   67.9    51    3.6   279     5.0   872.8    0.00 
 237    4:40   0.00   68.1    49    5.0   269     6.2   872.8    0.00 
 237    4:50   0.00   68.3    46    3.2   275     4.7   872.8    0.00 
 237    5:00   0.00   69.2    44    4.2   284     5.0   872.8    0.00 
 237    5:10   0.00   69.3    44    4.4   291     6.0   872.9    0.00 
 237    5:20   0.00   71.1    40    3.1   279     5.3   872.9    0.00 
 237    5:30   0.01   69.9    43    2.8     6     5.6   873.0    0.00 
 237    5:40   0.01   69.0    46    3.0   233     6.6   873.1    0.00 
 237    5:50   0.03   71.6    36    1.7   303     4.4   873.2    0.00 
 237    6:00   0.08   71.6    39    2.5   290     4.5   873.3    0.00 
 237    6:10   0.10   72.3    43    2.4   274     3.3   873.3    0.00 
 237    6:20   0.12   73.3    42    0.6   221     2.6   873.4    0.00 
 237    6:30   0.16   76.9    34    1.4    66     4.1   873.5    0.00 
 237    6:40   0.19   77.7    32    1.7    69     3.7   873.6    0.00 
 237    6:50   0.23   79.8    30    0.5    54     1.6   873.7    0.00 
 237    7:00   0.26   79.5    30    2.2    54     3.9   873.8    0.00 
 237    7:10   0.30   79.8    29    2.5    85     4.1   873.8    0.00 
 237    7:20   0.34   80.7    28    1.8   129     2.8   873.7    0.00 
 237    7:30   0.37   81.9    27    1.8   135     3.6   873.8    0.00 
 237    7:40   0.41   82.1    26    1.0    95     3.1   873.8    0.00 
 237    7:50   0.45   83.1    26    1.8   150     3.9   873.9    0.00 
 237    8:00   0.48   82.9    25    1.4   111     4.7   873.9    0.00 
 237    8:10   0.51   83.3    24    2.9   126     5.6   874.0    0.00 
 237    8:20   0.55   83.2    24    2.8    59     4.9   874.0    0.00 
 237    8:30   0.58   83.0    23    3.5    12     6.9   874.0    0.00 
 237    8:40   0.61   84.8    20    2.4   324     9.6   874.0    0.00 
 237    8:50   0.64   85.4    17    4.7   250    12.3   874.0    0.00 
 237    9:00   0.67   86.0    17    4.2   224     8.6   874.0    0.00 
 237    9:10   0.70   86.3    17    4.2   266     8.4   874.0    0.00 
 237    9:20   0.73   86.8    17    4.1   252    10.7   874.0    0.00 
 237    9:30   0.75   87.2    17    3.7   242     8.6   873.9    0.00 
 237    9:40   0.77   87.0    17    4.9   248    11.2   873.8    0.00 
 237    9:50   0.80   86.1    17    6.9   247    11.3   873.8    0.00 
 237   10:00   0.82   86.3    17    5.5   232    11.2   873.7    0.00 
 237   10:10   0.84   87.8    16    5.7   263    14.3   873.7    0.00 
 237   10:20   0.85   86.1    17    6.6   226    11.7   873.6    0.00 
 237   10:30   0.87   86.3    17    7.8   225    14.5   873.6    0.00 
 237   10:40   0.89   85.9    17    8.3   219    12.9   873.5    0.00 
 237   10:50   0.90   86.6    17    6.1   241    13.0   873.5    0.00 
 237   11:00   0.91   87.2    16    6.0   262    11.3   873.4    0.00 
 237   11:10   0.92   87.7    16    4.9   221    10.7   873.3    0.00 
 237   11:20   0.92   88.0    15    4.5   242     9.4   873.2    0.00 
 237   11:30   0.93   88.0    15    5.1   244    12.1   873.1    0.00 
 237   11:40   0.93   87.5    15    7.0   274    13.2   872.9    0.00 
 237   11:50   0.93   87.6    15    7.0   213    13.3   872.9    0.00 
 237   12:00   0.93   88.7    14    5.0   259    11.7   872.8    0.00 
 237   12:10   0.93   87.8    15    5.1   221     9.6   872.8    0.00 
 237   12:20   0.93   88.6    14    6.7   272    15.3   872.7    0.00 
 237   12:30   0.92   88.4    15    5.5   232    15.6   872.6    0.00 
 237   12:40   0.89   88.8    15    4.0   144    12.5   872.5    0.00 
 237   12:50   0.90   89.0    15    4.7   193    11.5   872.4    0.00 
 237   13:00   0.89   89.2    15    6.4   246    12.4   872.4    0.00 
 237   13:10   0.87   88.8    15    5.6   217    13.0   872.2    0.00 
 237   13:20   0.87   89.6    14    6.0   232    15.4   872.1    0.00 
 237   13:30   0.86   90.1    14    6.0   234    16.0   872.0    0.00 
 237   13:40   0.83   89.4    14    6.5   260    15.6   871.9    0.00 
 237   13:50   0.80   89.2    14    7.2   242    17.1   871.9    0.00 
 237   14:00   0.79   89.6    14    6.7   281    11.2   871.7    0.00 
 237   14:10   0.77   89.7    14    6.6   260    12.2   871.6    0.00 
 237   14:20   0.73   89.7    14    4.8   224    11.1   871.6    0.00 
 237   14:30   0.71   90.0    14    4.8   253     8.3   871.5    0.00 
 237   14:40   0.69   90.8    14    3.3   160    10.7   871.3    0.00 
 237   14:50   0.66   91.3    13    4.6   202    13.2   871.2    0.00 
 237   15:00   0.63   89.7    14    6.5   252    11.9   871.0    0.00 
 237   15:10   0.59   89.8    13    5.7   263    10.2   871.0    0.00 
 237   15:20   0.56   90.7    13    3.3   239     7.8   870.8    0.00 
 237   15:30   0.53   90.0    13    4.4   214    10.3   870.6    0.00 
 237   15:40   0.51   90.0    13    5.6   222    11.2   870.6    0.00 
 237   15:50   0.46   89.7    13    5.5   236    12.9   870.5    0.00 
 237   16:00   0.43   89.2    14    6.1   205    13.9   870.5    0.00 
 237   16:10   0.40   89.6    14    4.3   205    10.8   870.4    0.00 
 237   16:20   0.37   89.3    14    4.4   152    10.4   870.3    0.00 
 237   16:30   0.33   88.8    14    4.9   230    12.1   870.3    0.00 
 237   16:40   0.29   89.1    14    5.7   265     9.7   870.3    0.00 
 237   16:50   0.25   89.0    13    5.1   217    10.3   870.2    0.00 
 237   17:00   0.21   88.4    14    4.3   200     9.3   870.1    0.00 
 237   17:10   0.18   88.8    14    2.8   232     5.4   870.1    0.00 
 237   17:20   0.14   89.1    14    2.5   207     6.7   870.1    0.00 
 237   17:30   0.04   87.7    15    2.3   173     5.7   870.0    0.00 
 237   17:40   0.03   85.8    16    3.2   238     9.9   870.0    0.00 
 237   17:50   0.02   85.3    17    3.7   237     8.0   870.1    0.00 
 237   18:00   0.01   84.8    17    1.3   291     3.9   870.2    0.00 
 237   18:10   0.01   84.4    18    2.7   260     8.6   870.3    0.00 
 237   18:20   0.00   83.8    19    2.2   268     6.1   870.4    0.00 
 237   18:30   0.00   83.5    19    2.1   251     6.1   870.4    0.00 
 237   18:40   0.00   81.8    22    1.4   286     2.7   870.5    0.00 
 237   18:50   0.00   81.5    21    0.5   288     1.5   870.6    0.00 
 237   19:00   0.00   80.3    24    0.3   302     1.8   870.6    0.00 
 237   19:10   0.00   79.3    26    2.5   282     4.0   870.7    0.00 
 237   19:20   0.00   79.7    24    2.5   284     3.5   870.7    0.00 
 237   19:30   0.00   78.2    29    1.7   288     2.2   870.9    0.00 
 237   19:40   0.00   76.7    31    1.9   287     2.9   870.9    0.00 
 237   19:50   0.00   77.2    30    0.9   279     2.6   871.0    0.00 
 237   20:00   0.00   76.7    32    1.1   267     2.5   871.0    0.00 

Return to Sweeney Granite Mountains graphs page.


Western Regional Climate Center,wrcc@dri.edu